createdAt,value
2022-11-27T00:01:16.306Z,101967.28
2022-11-27T00:03:49.279Z,101968.20
2022-11-27T00:06:24.352Z,101967.46
2022-11-27T00:08:59.506Z,101963.14
2022-11-27T00:11:34.061Z,101956.73
2022-11-27T00:14:06.993Z,101951.48
2022-11-27T00:16:40.023Z,101954.16
2022-11-27T00:19:14.105Z,101956.64
2022-11-27T00:21:46.730Z,101955.42
2022-11-27T00:24:19.630Z,101958.42
2022-11-27T00:26:52.401Z,101958.69
2022-11-27T00:29:29.083Z,101959.25
2022-11-27T00:32:01.769Z,101953.85
2022-11-27T00:34:34.818Z,101952.98
2022-11-27T00:37:07.461Z,101952.17
2022-11-27T00:39:39.959Z,101950.30
2022-11-27T00:42:12.511Z,101956.13
2022-11-27T00:44:46.497Z,101960.39
2022-11-27T00:47:20.380Z,101959.34
2022-11-27T00:49:53.028Z,101967.12
2022-11-27T00:52:25.705Z,101966.77
2022-11-27T00:54:58.634Z,101966.89
2022-11-27T00:57:31.412Z,101971.80
2022-11-27T01:00:04.206Z,101972.36
2022-11-27T01:02:37.345Z,101972.31
2022-11-27T01:05:11.308Z,101968.23
2022-11-27T01:07:43.989Z,101969.06
2022-11-27T01:10:16.863Z,101971.80
2022-11-27T01:12:51.523Z,101975.73
2022-11-27T01:15:26.034Z,101972.77
2022-11-27T01:17:59.579Z,101971.84
2022-11-27T01:20:32.696Z,101971.12
2022-11-27T01:23:05.216Z,101970.47
2022-11-27T01:25:38.665Z,101971.16
2022-11-27T01:28:11.496Z,101967.16
2022-11-27T01:30:44.865Z,101971.23
2022-11-27T01:33:19.133Z,101970.16
2022-11-27T01:35:59.586Z,101973.72
2022-11-27T01:38:34.332Z,101974.05
2022-11-27T01:41:14.773Z,101973.27
2022-11-27T01:43:50.047Z,101973.00
2022-11-27T01:46:41.496Z,101976.79
2022-11-27T01:49:30.739Z,101972.84
2022-11-27T01:52:08.726Z,101974.40
2022-11-27T01:54:47.093Z,101977.74
2022-11-27T01:57:23.487Z,101973.09
2022-11-27T01:59:59.294Z,101974.52
2022-11-27T02:02:32.134Z,101972.70
2022-11-27T02:05:04.921Z,101975.86
2022-11-27T02:07:38.018Z,101970.96
2022-11-27T02:10:15.625Z,101973.31
2022-11-27T02:12:58.462Z,101974.02
2022-11-27T02:15:36.746Z,101969.91
2022-11-27T02:18:20.267Z,101970.70
2022-11-27T02:21:01.208Z,101972.31
2022-11-27T02:24:08.377Z,101977.88
2022-11-27T02:27:05.980Z,101980.58
2022-11-27T02:29:41.185Z,101980.31
2022-11-27T02:32:21.698Z,101982.07
2022-11-27T02:35:00.559Z,101980.80
2022-11-27T02:37:41.051Z,101978.48
2022-11-27T02:40:17.944Z,101977.06
2022-11-27T02:42:55.016Z,101973.94
2022-11-27T02:45:33.749Z,101974.79
2022-11-27T02:48:07.927Z,101981.30
2022-11-27T02:50:44.638Z,101980.46
2022-11-27T02:53:22.578Z,101980.19
2022-11-27T02:55:57.482Z,101978.84
2022-11-27T02:58:31.684Z,101979.11
2022-11-27T03:01:06.685Z,101980.61
2022-11-27T03:03:43.226Z,101982.58
2022-11-27T03:06:19.705Z,101980.09
2022-11-27T03:08:56.718Z,101981.23
2022-11-27T03:11:31.066Z,101980.16
2022-11-27T03:14:07.899Z,101976.57
2022-11-27T03:16:45.617Z,101980.40
2022-11-27T03:19:23.929Z,101985.29
2022-11-27T03:22:02.123Z,101984.52
2022-11-27T03:24:38.490Z,101981.32
2022-11-27T03:27:13.665Z,101976.58
2022-11-27T03:29:50.866Z,101982.49
2022-11-27T03:32:24.018Z,101980.27
2022-11-27T03:34:56.985Z,101979.55
2022-11-27T03:37:30.147Z,101979.89
2022-11-27T03:40:03.427Z,101976.66
2022-11-27T03:42:46.450Z,101979.55
2022-11-27T03:45:29.266Z,101982.42
2022-11-27T03:48:15.833Z,101984.89
2022-11-27T03:51:02.178Z,101988.63
2022-11-27T03:53:45.891Z,101981.07
2022-11-27T03:56:29.372Z,101979.61
2022-11-27T03:59:04.550Z,101976.57
2022-11-27T04:01:37.725Z,101977.09
2022-11-27T04:04:10.812Z,101977.84
2022-11-27T04:06:43.512Z,101981.36
2022-11-27T04:09:16.208Z,101975.62
2022-11-27T04:11:48.909Z,101979.87
2022-11-27T04:14:21.460Z,101979.96
2022-11-27T04:16:54.350Z,101981.06
2022-11-27T04:19:27.469Z,101983.38
2022-11-27T04:22:00.157Z,101981.85
2022-11-27T04:24:34.452Z,101983.63
2022-11-27T04:27:07.007Z,101982.29
2022-11-27T04:29:39.601Z,101979.17
2022-11-27T04:32:12.236Z,101986.44
2022-11-27T04:34:45.089Z,101986.33
2022-11-27T04:37:17.687Z,101984.92
2022-11-27T04:39:50.646Z,101989.05
2022-11-27T04:42:23.626Z,101986.23
2022-11-27T04:44:56.167Z,101984.61
2022-11-27T04:47:28.870Z,101983.88
2022-11-27T04:50:01.689Z,101988.80
2022-11-27T04:52:35.382Z,101987.94
2022-11-27T04:55:10.206Z,101986.73
2022-11-27T04:57:42.781Z,101985.05
2022-11-27T05:00:17.841Z,101988.66
2022-11-27T05:02:50.704Z,101989.55
2022-11-27T05:05:23.306Z,101991.11
2022-11-27T05:07:56.704Z,102002.45
2022-11-27T05:10:31.551Z,102010.75
2022-11-27T05:13:05.975Z,102008.13
2022-11-27T05:15:40.329Z,102010.60
2022-11-27T05:18:12.904Z,102010.41
2022-11-27T05:20:45.420Z,102008.90
2022-11-27T05:23:18.014Z,102008.14
2022-11-27T05:25:50.966Z,102009.97
2022-11-27T05:28:26.822Z,102016.19
2022-11-27T05:31:00.585Z,102012.39
2022-11-27T05:33:33.283Z,102017.60
2022-11-27T05:36:06.429Z,102023.39
2022-11-27T05:38:38.954Z,102019.17
2022-11-27T05:41:11.685Z,102024.80
2022-11-27T05:43:46.567Z,102020.75
2022-11-27T05:46:22.979Z,102023.16
2022-11-27T05:48:55.728Z,102024.64
2022-11-27T05:51:28.241Z,102022.89
2022-11-27T05:54:00.993Z,102023.05
2022-11-27T05:56:33.660Z,102022.42
2022-11-27T05:59:06.585Z,102022.07
2022-11-27T06:01:39.681Z,102021.86
2022-11-27T06:04:12.649Z,102017.98
2022-11-27T06:06:46.753Z,102019.05
2022-11-27T06:09:19.330Z,102022.58
2022-11-27T06:11:51.922Z,102022.59
2022-11-27T06:14:24.723Z,102026.22
2022-11-27T06:16:57.929Z,102025.85
2022-11-27T06:19:31.157Z,102022.80
2022-11-27T06:22:03.933Z,102021.61
2022-11-27T06:24:36.634Z,102020.59
2022-11-27T06:27:09.320Z,102021.08
2022-11-27T06:29:41.977Z,102018.77
2022-11-27T06:32:14.732Z,102023.37
2022-11-27T06:34:47.314Z,102021.77
2022-11-27T06:37:20.411Z,102024.79
2022-11-27T06:39:53.153Z,102021.40
2022-11-27T06:42:25.967Z,102026.05
2022-11-27T06:44:59.034Z,102024.31
2022-11-27T06:47:31.569Z,102025.67
2022-11-27T06:50:04.802Z,102027.88
2022-11-27T06:52:40.309Z,102026.52
2022-11-27T06:55:12.080Z,102027.07
2022-11-27T06:57:45.838Z,102025.00
2022-11-27T07:00:20.443Z,102024.40
2022-11-27T07:02:57.037Z,102026.33
2022-11-27T07:05:30.290Z,102027.95
2022-11-27T07:08:03.093Z,102026.26
2022-11-27T07:10:38.417Z,102026.16
2022-11-27T07:13:11.277Z,102029.23
2022-11-27T07:15:44.161Z,102031.24
2022-11-27T07:18:16.709Z,102026.80
2022-11-27T07:20:56.839Z,102027.48
2022-11-27T07:23:29.594Z,102032.75
2022-11-27T07:26:06.145Z,102033.45
2022-11-27T07:28:39.380Z,102033.92
2022-11-27T07:31:12.707Z,102036.34
2022-11-27T07:33:45.313Z,102038.31
2022-11-27T07:36:20.295Z,102036.13
2022-11-27T07:38:53.663Z,102037.33
2022-11-27T07:41:32.285Z,102036.17
2022-11-27T07:44:06.709Z,102034.46
2022-11-27T07:46:39.269Z,102035.97
2022-11-27T07:49:11.841Z,102034.53
2022-11-27T07:51:44.523Z,102035.16
2022-11-27T07:54:17.201Z,102036.88
2022-11-27T07:56:49.767Z,102038.45
2022-11-27T07:59:22.466Z,102035.30
2022-11-27T08:01:55.469Z,102034.05
2022-11-27T08:04:28.283Z,102037.52
2022-11-27T08:07:00.942Z,102040.14
2022-11-27T08:09:33.958Z,102040.30
2022-11-27T08:12:08.772Z,102039.16
2022-11-27T08:14:41.673Z,102042.35
2022-11-27T08:17:16.480Z,102041.13
2022-11-27T08:19:49.279Z,102041.13
2022-11-27T08:22:21.927Z,102039.02
2022-11-27T08:24:54.842Z,102042.14
2022-11-27T08:27:27.547Z,102043.55
2022-11-27T08:30:00.493Z,102043.59
2022-11-27T08:32:33.456Z,102044.77
2022-11-27T08:35:06.785Z,102049.27
2022-11-27T08:37:39.577Z,102049.25
2022-11-27T08:40:13.861Z,102047.16
2022-11-27T08:42:46.401Z,102042.94
2022-11-27T08:45:19.158Z,102046.34
2022-11-27T08:47:51.725Z,102043.33
2022-11-27T08:50:24.455Z,102041.83
2022-11-27T08:52:58.278Z,102040.45
2022-11-27T08:55:31.324Z,102039.48
2022-11-27T08:58:05.565Z,102039.00
2022-11-27T09:00:40.651Z,102043.36
2022-11-27T09:03:17.430Z,102041.82
2022-11-27T09:05:50.081Z,102037.56
2022-11-27T09:08:23.221Z,102043.98
2022-11-27T09:11:01.020Z,102045.29
2022-11-27T09:13:36.866Z,102039.17
2022-11-27T09:16:13.532Z,102035.16
2022-11-27T09:18:47.605Z,102034.00
2022-11-27T09:21:22.385Z,102032.32
2022-11-27T09:23:57.840Z,102028.07
2022-11-27T09:26:31.200Z,102024.06
2022-11-27T09:29:04.149Z,102024.88
2022-11-27T09:31:36.727Z,102021.10
2022-11-27T09:34:09.421Z,102020.59
2022-11-27T09:36:42.016Z,102014.65
2022-11-27T09:39:15.867Z,102011.31
2022-11-27T09:41:51.425Z,102012.26
2022-11-27T09:44:33.083Z,102007.41
2022-11-27T09:47:13.455Z,102012.91
2022-11-27T09:49:48.716Z,102011.20
2022-11-27T09:52:29.388Z,102012.02
2022-11-27T09:55:07.377Z,102013.83
2022-11-27T09:57:41.910Z,102008.13
2022-11-27T10:00:19.459Z,102007.89
2022-11-27T10:02:52.974Z,102008.92
2022-11-27T10:05:28.334Z,102007.64
2022-11-27T10:08:15.168Z,102011.42
2022-11-27T10:10:58.318Z,102009.98
2022-11-27T10:13:41.718Z,102005.39
2022-11-27T10:16:26.358Z,102003.83
2022-11-27T10:19:07.394Z,101999.79
2022-11-27T10:21:51.144Z,101999.31
2022-11-27T10:24:37.065Z,101993.41
2022-11-27T10:27:21.573Z,101990.50
2022-11-27T10:29:57.378Z,101988.54
2022-11-27T10:32:54.962Z,101985.96
2022-11-27T10:35:27.833Z,101984.42
2022-11-27T10:38:07.202Z,101986.92
2022-11-27T10:40:46.030Z,101987.65
2022-11-27T10:43:22.876Z,101981.65
2022-11-27T10:46:00.041Z,101975.76
2022-11-27T10:48:34.357Z,101977.40
2022-11-27T10:51:11.402Z,101971.09
2022-11-27T10:53:47.336Z,101968.35
2022-11-27T10:56:52.183Z,101964.55
2022-11-27T10:59:33.035Z,101962.45
2022-11-27T11:02:09.548Z,101959.23
2022-11-27T11:04:42.354Z,101958.63
2022-11-27T11:07:28.030Z,101954.64
2022-11-27T11:10:01.317Z,101956.23
2022-11-27T11:12:33.904Z,101952.72
2022-11-27T11:15:15.537Z,101948.00
2022-11-27T11:17:48.176Z,101942.61
2022-11-27T11:20:23.903Z,101936.96
2022-11-27T11:22:56.992Z,101935.45
2022-11-27T11:25:29.891Z,101930.79
2022-11-27T11:28:02.597Z,101927.29
2022-11-27T11:30:38.105Z,101918.37
2022-11-27T11:33:16.720Z,101916.42
2022-11-27T11:35:56.231Z,101914.64
2022-11-27T11:38:33.093Z,101912.40
2022-11-27T11:41:09.820Z,101909.27
2022-11-27T11:43:43.685Z,101908.65
2022-11-27T11:46:24.172Z,101904.59
2022-11-27T11:49:00.613Z,101903.46
2022-11-27T11:52:04.220Z,101904.41
2022-11-27T11:54:54.941Z,101901.62
2022-11-27T12:01:27.283Z,101896.14
2022-11-27T12:04:18.391Z,101895.94
2022-11-27T12:07:04.928Z,101894.70
2022-11-27T12:09:42.947Z,101890.23
2022-11-27T12:12:26.734Z,101890.01
2022-11-27T12:15:04.993Z,101888.61
2022-11-27T12:17:51.857Z,101887.12
2022-11-27T12:20:29.790Z,101888.08
2022-11-27T12:23:35.114Z,101885.16
2022-11-27T12:26:16.701Z,101885.26
2022-11-27T12:29:24.488Z,101877.35
2022-11-27T12:32:13.474Z,101870.48
2022-11-27T12:35:00.654Z,101868.02
2022-11-27T12:37:48.346Z,101867.27
2022-11-27T12:40:36.605Z,101872.80
2022-11-27T12:43:24.840Z,101875.27
2022-11-27T12:46:03.499Z,101873.43
2022-11-27T12:48:40.487Z,101872.23
2022-11-27T12:51:19.351Z,101874.73
2022-11-27T12:53:58.895Z,101878.83
2022-11-27T12:56:34.866Z,101876.31
2022-11-27T12:59:14.544Z,101880.88
2022-11-27T13:01:53.821Z,101878.55
2022-11-27T13:04:32.551Z,101877.44
2022-11-27T13:07:11.726Z,101874.64
2022-11-27T13:09:48.730Z,101879.23
2022-11-27T13:12:30.318Z,101878.21
2022-11-27T13:15:05.791Z,101878.20
2022-11-27T13:17:42.749Z,101880.73
2022-11-27T13:20:21.779Z,101878.95
2022-11-27T13:22:54.881Z,101875.81
2022-11-27T13:25:28.273Z,101874.88
2022-11-27T13:28:03.253Z,101875.70
2022-11-27T13:30:38.650Z,101877.70
2022-11-27T13:33:27.659Z,101876.65
2022-11-27T13:36:01.810Z,101874.63
2022-11-27T13:38:36.590Z,101872.83
2022-11-27T13:41:09.625Z,101874.52
2022-11-27T13:43:46.737Z,101875.15
2022-11-27T13:46:25.226Z,101873.95
2022-11-27T13:49:03.332Z,101877.35
2022-11-27T13:51:38.886Z,101877.81
2022-11-27T13:54:14.065Z,101878.81
2022-11-27T13:56:46.030Z,101877.24
2022-11-27T13:59:21.946Z,101874.42
2022-11-27T14:02:00.842Z,101876.40
2022-11-27T14:04:35.353Z,101881.79
2022-11-27T14:07:11.826Z,101874.55
2022-11-27T14:09:47.954Z,101874.59
2022-11-27T14:12:35.325Z,101869.90
2022-11-27T14:15:12.179Z,101875.30
2022-11-27T14:17:46.166Z,101878.95
2022-11-27T14:20:37.409Z,101881.13
2022-11-27T14:23:13.637Z,101881.55
2022-11-27T14:25:46.388Z,101884.88
2022-11-27T14:28:26.363Z,101881.95
2022-11-27T14:31:00.949Z,101882.77
2022-11-27T14:33:59.562Z,101884.77
2022-11-27T14:36:30.784Z,101878.94
2022-11-27T14:39:03.656Z,101884.71
2022-11-27T14:41:36.347Z,101886.79
2022-11-27T14:44:17.340Z,101878.78
2022-11-27T14:46:49.876Z,101879.59
2022-11-27T14:49:25.188Z,101875.20
2022-11-27T14:52:00.615Z,101872.02
2022-11-27T14:54:36.669Z,101862.07
2022-11-27T14:57:08.399Z,101873.98
2022-11-27T14:59:41.729Z,101874.67
2022-11-27T15:02:27.575Z,101873.48
2022-11-27T15:05:07.559Z,101873.27
2022-11-27T15:07:47.976Z,101873.68
2022-11-27T15:10:36.614Z,101873.80
2022-11-27T15:13:21.043Z,101874.27
2022-11-27T15:16:03.751Z,101872.73
2022-11-27T15:18:38.924Z,101877.40
2022-11-27T15:21:19.352Z,101878.61
2022-11-27T15:23:53.686Z,101880.39
2022-11-27T15:26:43.471Z,101880.37
2022-11-27T15:29:36.221Z,101882.62
2022-11-27T15:32:23.678Z,101881.02
2022-11-27T15:34:56.961Z,101881.26
2022-11-27T15:37:32.707Z,101885.70
2022-11-27T15:40:17.448Z,101886.41
2022-11-27T15:42:49.794Z,101887.34
2022-11-27T15:45:22.683Z,101889.01
2022-11-27T15:48:01.964Z,101890.13
2022-11-27T15:50:35.018Z,101886.17
2022-11-27T15:53:07.334Z,101883.98
2022-11-27T15:55:40.085Z,101890.44
2022-11-27T15:58:12.920Z,101883.20
2022-11-27T16:00:45.715Z,101884.98
2022-11-27T16:03:18.650Z,101886.37
2022-11-27T16:05:51.146Z,101887.98
2022-11-27T16:08:23.570Z,101887.09
2022-11-27T16:11:00.255Z,101882.97
2022-11-27T16:13:32.653Z,101884.45
2022-11-27T16:16:09.965Z,101884.95
2022-11-27T16:18:42.390Z,101879.29
2022-11-27T16:21:16.410Z,101880.77
2022-11-27T16:23:48.664Z,101879.30
2022-11-27T16:26:21.070Z,101876.70
2022-11-27T16:28:53.372Z,101874.85
2022-11-27T16:31:26.742Z,101874.70
2022-11-27T16:34:01.660Z,101872.98
2022-11-27T16:36:34.317Z,101878.45
2022-11-27T16:39:07.570Z,101878.31
2022-11-27T16:41:40.620Z,101881.52
2022-11-27T16:44:15.678Z,101880.30
2022-11-27T16:46:48.128Z,101880.27
2022-11-27T16:49:20.486Z,101876.52
2022-11-27T16:51:52.795Z,101874.83
2022-11-27T16:54:25.214Z,101874.27
2022-11-27T16:56:57.512Z,101875.91
2022-11-27T16:59:29.957Z,101872.58
2022-11-27T17:02:03.904Z,101869.38
2022-11-27T17:04:39.726Z,101870.39
2022-11-27T17:07:12.497Z,101867.29
2022-11-27T17:09:45.012Z,101868.29
2022-11-27T17:12:17.759Z,101870.64
2022-11-27T17:14:50.209Z,101876.94
2022-11-27T17:17:23.883Z,101874.19
2022-11-27T17:20:00.597Z,101869.02
2022-11-27T17:22:33.463Z,101875.02
2022-11-27T17:25:10.681Z,101872.71
2022-11-27T17:27:43.782Z,101873.96
2022-11-27T17:30:17.894Z,101875.21
2022-11-27T17:32:50.234Z,101878.45
2022-11-27T17:35:22.643Z,101884.66
2022-11-27T17:37:54.944Z,101883.27
2022-11-27T17:40:27.421Z,101885.29
2022-11-27T17:42:59.826Z,101885.92
2022-11-27T17:45:32.591Z,101891.06
2022-11-27T17:48:05.178Z,101890.19
2022-11-27T17:50:37.571Z,101894.70
2022-11-27T17:53:10.545Z,101893.59
2022-11-27T17:55:42.863Z,101895.50
2022-11-27T17:58:15.346Z,101898.13
2022-11-27T18:00:48.263Z,101895.95
2022-11-27T18:03:20.746Z,101891.98
2022-11-27T18:05:53.115Z,101894.02
2022-11-27T18:08:26.175Z,101893.27
2022-11-27T18:10:59.071Z,101891.85
2022-11-27T18:13:32.643Z,101896.14
2022-11-27T18:16:10.262Z,101892.61
2022-11-27T18:18:43.718Z,101891.34
2022-11-27T18:21:18.889Z,101894.34
2022-11-27T18:24:21.938Z,101893.17
2022-11-27T18:29:43.126Z,101888.39
2022-11-27T18:32:17.095Z,101891.45
2022-11-27T18:34:49.844Z,101890.46
2022-11-27T18:37:22.182Z,101892.11
2022-11-27T18:39:54.569Z,101888.15
2022-11-27T18:42:26.966Z,101885.90
2022-11-27T18:44:59.414Z,101888.88
2022-11-27T18:47:33.592Z,101892.98
2022-11-27T18:50:08.213Z,101890.75
2022-11-27T18:52:41.484Z,101890.89
2022-11-27T18:55:13.970Z,101890.52
2022-11-27T18:57:46.447Z,101890.55
2022-11-27T19:00:20.634Z,101892.67
2022-11-27T19:02:53.600Z,101889.84
2022-11-27T19:05:26.584Z,101888.71
2022-11-27T19:08:01.854Z,101891.35
2022-11-27T19:10:36.271Z,101887.66
2022-11-27T19:13:08.803Z,101889.61
2022-11-27T19:15:43.354Z,101892.30
2022-11-27T19:18:16.346Z,101894.17
2022-11-27T19:20:49.083Z,101890.11
2022-11-27T19:23:21.841Z,101889.63
2022-11-27T19:25:56.439Z,101887.21
2022-11-27T19:28:28.919Z,101890.19
2022-11-27T19:31:04.055Z,101892.23
2022-11-27T19:33:37.278Z,101889.44
2022-11-27T19:36:12.375Z,101891.98
2022-11-27T19:38:45.339Z,101890.02
2022-11-27T19:41:20.016Z,101887.52
2022-11-27T19:43:53.118Z,101886.93
2022-11-27T19:46:28.619Z,101886.55
2022-11-27T19:49:03.852Z,101888.84
2022-11-27T19:51:39.187Z,101889.73
2022-11-27T19:54:13.623Z,101891.20
2022-11-27T19:56:46.734Z,101890.84
2022-11-27T19:59:22.909Z,101887.84
2022-11-27T20:01:58.454Z,101885.16
2022-11-27T20:04:30.850Z,101885.02
2022-11-27T20:07:03.665Z,101879.61
2022-11-27T20:09:36.067Z,101882.84
2022-11-27T20:12:09.360Z,101878.10
2022-11-27T20:14:41.911Z,101875.64
2022-11-27T20:17:14.955Z,101872.88
2022-11-27T20:19:47.705Z,101871.56
2022-11-27T20:22:20.405Z,101873.92
2022-11-27T20:25:17.851Z,101873.73
2022-11-27T20:27:45.926Z,101874.90
2022-11-27T20:30:18.822Z,101870.58
2022-11-27T20:32:54.682Z,101871.79
2022-11-27T20:35:27.615Z,101869.05
2022-11-27T20:37:59.911Z,101866.36
2022-11-27T20:40:33.851Z,101864.92
2022-11-27T20:43:06.444Z,101865.30
2022-11-27T20:45:42.084Z,101864.77
2022-11-27T20:48:14.399Z,101867.25
2022-11-27T20:50:51.339Z,101864.11
2022-11-27T20:53:23.824Z,101863.88
2022-11-27T20:55:56.112Z,101864.83
2022-11-27T20:58:28.436Z,101867.68
2022-11-27T21:01:01.265Z,101872.77
2022-11-27T21:03:33.683Z,101875.23
2022-11-27T21:06:06.369Z,101875.54
2022-11-27T21:08:39.524Z,101875.89
2022-11-27T21:11:14.538Z,101878.73
2022-11-27T21:13:47.104Z,101882.44
2022-11-27T21:16:19.796Z,101884.06
2022-11-27T21:18:55.438Z,101885.18
2022-11-27T21:21:28.421Z,101884.98
2022-11-27T21:24:00.931Z,101882.70
2022-11-27T21:26:33.274Z,101883.48
2022-11-27T21:29:05.865Z,101882.13
2022-11-27T21:31:40.772Z,101883.56
2022-11-27T21:34:15.566Z,101884.48
2022-11-27T21:36:47.832Z,101882.02
2022-11-27T21:39:21.230Z,101881.70
2022-11-27T21:41:55.247Z,101883.55
2022-11-27T21:44:27.843Z,101878.91
2022-11-27T21:47:01.026Z,101881.71
2022-11-27T21:49:33.418Z,101881.55
2022-11-27T21:52:07.110Z,101880.46
2022-11-27T21:54:39.567Z,101882.67
2022-11-27T21:57:13.042Z,101877.30
2022-11-27T21:59:46.632Z,101879.98
2022-11-27T22:02:19.152Z,101884.11
2022-11-27T22:04:52.754Z,101881.81
2022-11-27T22:07:25.646Z,101881.23
2022-11-27T22:09:58.126Z,101876.08
2022-11-27T22:12:30.834Z,101871.81
2022-11-27T22:15:03.538Z,101875.04
2022-11-27T22:17:36.135Z,101872.95
2022-11-27T22:20:11.067Z,101872.09
2022-11-27T22:22:43.967Z,101873.56
2022-11-27T22:25:18.051Z,101871.95
2022-11-27T22:27:50.455Z,101870.10
2022-11-27T22:30:24.376Z,101869.63
2022-11-27T22:32:57.902Z,101866.89
2022-11-27T22:35:30.204Z,101866.39
2022-11-27T22:38:02.620Z,101869.61
2022-11-27T22:40:35.442Z,101862.58
2022-11-27T22:43:07.756Z,101867.15
2022-11-27T22:45:48.121Z,101865.45
2022-11-27T22:48:20.585Z,101862.64
2022-11-27T22:50:59.502Z,101863.13
2022-11-27T22:53:32.472Z,101864.73
2022-11-27T22:56:09.182Z,101860.06
2022-11-27T22:58:42.116Z,101862.98
2022-11-27T23:01:19.383Z,101861.08
2022-11-27T23:03:54.035Z,101859.26
2022-11-27T23:06:28.622Z,101853.73
2022-11-27T23:09:00.931Z,101853.77
2022-11-27T23:11:33.411Z,101850.08
2022-11-27T23:14:05.893Z,101851.31
2022-11-27T23:16:38.367Z,101848.33
2022-11-27T23:19:11.017Z,101854.61
2022-11-27T23:21:43.698Z,101853.38
2022-11-27T23:24:16.563Z,101850.70
2022-11-27T23:26:49.296Z,101850.40
2022-11-27T23:29:21.678Z,101849.59
2022-11-27T23:31:54.237Z,101846.91
2022-11-27T23:34:27.055Z,101843.32
2022-11-27T23:36:59.654Z,101841.92
2022-11-27T23:39:32.146Z,101836.09
2022-11-27T23:42:04.498Z,101835.67
2022-11-27T23:44:37.603Z,101834.76
2022-11-27T23:47:10.507Z,101835.90
2022-11-27T23:49:43.502Z,101830.02
2022-11-27T23:52:17.401Z,101829.77
2022-11-27T23:54:50.245Z,101830.08
2022-11-27T23:57:22.686Z,101832.67
2022-11-27T23:59:55.074Z,101829.51
